Main page
METAR-TAF:

METAR-TAF

Airports :

Municipal Airport

Cherokee, Iowa, United States

latitude: 42-43-54N, longitude: 095-33-21W, elevation: 1227 ft

Current weather observation

The report was made 26 minutes ago, at 21:55 UTC
Wind 12 mph from the North/Northwest
Temperature 77°F
Humidity 44%
Pressure 30.16 in. Hg
Visibility: 10 miles
Few clouds at a height of 5000 ft

METAR: KCKP 172155Z AUTO 34010KT 10SM FEW050 25/12 A3016 RMK AO2

Time: 17:21 (22:21 UTC)


TAF: missing

Weather observations and forecasts of more than 4000 airports (METAR and TAF reports).

The available stations are represented by yellow and red dots on the map.

Hover mouse over dot to see the name of the station.

Then click to see weather observations and forecasts.

To change the map : click on the green buttons with a black cross to zoom in, on the green button with a dash to zoom out, or on the green arrows for adjacent maps.


METAR-TAF: